McAlister, NM

1:18 PM MDT on July 30, 2014 (GMT -0600)
Tucumcari Municipal (KTCC) Elev 4065 ft | 35.18 °N, 103.60 °W | Change Station

Current weather conditions updated 25 minutes ago

Scattered Clouds
Scattered Clouds
86 °F
Feels Like 85 °F
N
14
Wind Variable Wind from NE
Gusts 25 mph

Today is forecast to be Warmer than yesterday.

Today
High -- | Low -- °F
--% Chance of Precip.
Yesterday
High -- | Low -- °F
Precip. -- in
6:03 AM 7:58 PM
Waxing Crescent, 13% visible
Pressure 29.93 in
Visibility 10.0 miles
Clouds Scattered Clouds 5500 ft
Heat Index 85 °F
Dew Point 59 °F
Humidity 40%
Rainfall 0.00 in
Snow Depth Not available.
UV 10 out of 12
Pollen 4.90 out of 12
Air Quality Not available.
Flu Activity Not available.
METAR KTCC 301853Z AUTO 04012G22KT 10SM SCT055 30/15 A3012 RMK AO2 SLP134 T03000150

More Conditions Fewer Conditions

Pressure 29.93 in
Visibility 10.0 miles
Clouds Scattered Clouds 5500 ft
Heat Index 85 °F
Dew Point 59 °F
Humidity 40%
Rainfall 0.00 in
Snow Depth Not available.
UV 10 out of 12
Pollen 4.90 out of 12
Air Quality Not available.
Flu Activity Not available.
METAR KTCC 301853Z AUTO 04012G22KT 10SM SCT055 30/15 A3012 RMK AO2 SLP134 T03000150

More Conditions Fewer Conditions

10-Day Weather Forecast

Almanac

Astronomy

Jul. 30, 2014 Rise Set
Actual Time 6:03 AM MDT 7:58 PM MDT
Civil Twilight 5:35 AM MDT 8:26 PM MDT
Nautical Twilight 5:01 AM MDT 8:59 PM MDT
Astronomical Twilight 4:25 AM MDT 9:35 PM MDT
Moon 9:26 AM MDT 9:54 PM MDT
Length of Visible Light 14h 51m
Length of Day
13h 55m
Tomorrow will be 1m 35s shorter.
Waxing Crescent, 13% of the Moon is Illuminated
Today
Waxing Crescent
Aug 3
First Quarter
Aug 10
Full
Aug 17
Last Quarter
Aug 25
New

Today's Extremes

State Highs State Lows

Community

WunderPhotos

Upload Photos

1,739,162 photos uploaded!

WunderBlogs® & News

Nearby

Snow Depth

Station Depth Elevation
Wesner Springs 1 in 11120 ft
Elk Cabin 49 in 8210 ft
Santa Fe 0 in 11445 ft
Gallegos Peak 0 in 9800 ft
Sierra Blanca 1 in 10280 ft

Earthquake Activity

City Distance Mag. Time & Date
No recent earthquake activity has been reported nearby.
Minimum magnitude displayed is 2.5.

Coastal Water Temperatures

Place Temperature
No Stations Reporting

Nearby Weather Stations

There are no personal weather stations in this area.